Time;durP1;ratioP1;P1;durP2;ratioP2;P2;SDS_P1;SDS_P2;PMS_P1;PMS_P2;Temp;Humidity;BMP_temperature;BMP_pressure;BME280_temperature;BME280_humidity;BME280_pressure;Samples;Min_cycle;Max_cycle;Signal;HPM_P1;HPM_P2
2023/06/12 00:00:13;;;;;;;4.03;3.73;;;23.10;23.40;;;;;;10459263;28;20236;-73
2023/06/12 00:05:19;;;;;;;4.23;3.93;;;22.90;23.50;;;;;;10455659;28;20264;-73
2023/06/12 00:10:23;;;;;;;4.10;3.80;;;22.80;23.90;;;;;;10454422;28;20802;-74
2023/06/12 00:15:26;;;;;;;4.90;4.40;;;22.70;23.80;;;;;;10457297;28;20235;-73
2023/06/12 00:20:31;;;;;;;4.33;4.03;;;22.60;23.80;;;;;;10462605;28;20229;-73
2023/06/12 00:25:34;;;;;;;4.50;4.20;;;22.50;24.80;;;;;;10461790;28;20225;-74
2023/06/12 00:30:37;;;;;;;4.13;3.90;;;22.40;24.10;;;;;;10449285;28;20235;-74
2023/06/12 00:35:42;;;;;;;4.33;4.03;;;22.20;24.20;;;;;;10458665;28;20224;-74
2023/06/12 00:40:45;;;;;;;4.43;4.13;;;22.10;24.70;;;;;;10451878;28;20880;-74
2023/06/12 00:45:48;;;;;;;4.37;3.97;;;22.00;24.40;;;;;;10458560;28;20225;-73
2023/06/12 00:50:56;;;;;;;4.40;4.10;;;21.90;24.50;;;;;;10456284;28;20229;-73
2023/06/12 00:55:59;;;;;;;4.70;4.40;;;21.90;25.20;;;;;;10460560;28;20932;-74
2023/06/12 01:01:03;;;;;;;4.57;4.27;;;21.80;24.90;;;;;;10456928;28;20726;-74
2023/06/12 01:06:10;;;;;;;5.17;4.77;;;21.80;25.10;;;;;;10453755;28;20295;-75
2023/06/12 01:11:14;;;;;;;4.57;4.27;;;21.60;25.70;;;;;;10452652;28;20225;-74
2023/06/12 01:16:17;;;;;;;4.97;4.47;;;21.40;25.10;;;;;;10451693;28;20721;-73
2023/06/12 01:21:22;;;;;;;4.90;4.60;;;21.30;25.30;;;;;;10453153;28;20674;-73
2023/06/12 01:26:43;;;;;;;4.67;4.37;;;21.20;26.10;;;;;;10457760;28;20229;-73
2023/06/12 01:32:02;;;;;;;5.20;4.80;;;21.20;26.70;;;;;;10459226;28;20228;-73
2023/06/12 01:37:16;;;;;;;5.17;4.77;;;21.10;26.10;;;;;;10451112;28;20309;-73
2023/06/12 01:42:20;;;;;;;4.93;4.53;;;21.00;26.20;;;;;;10452987;28;20352;-74
2023/06/12 01:47:25;;;;;;;5.00;4.63;;;20.90;25.90;;;;;;10457325;28;20241;-73
2023/06/12 01:52:28;;;;;;;4.70;4.30;;;20.90;25.90;;;;;;10458000;28;20231;-73
2023/06/12 01:57:32;;;;;;;5.30;4.90;;;20.90;25.90;;;;;;10453280;28;20320;-73
2023/06/12 02:02:39;;;;;;;4.70;4.40;;;20.80;25.90;;;;;;10457248;28;20252;-73
2023/06/12 02:07:42;;;;;;;5.30;4.90;;;20.70;26.30;;;;;;10457646;28;20225;-74
2023/06/12 02:12:45;;;;;;;4.60;4.30;;;20.70;25.80;;;;;;10454812;28;20224;-73
2023/06/12 02:17:51;;;;;;;4.70;4.40;;;20.60;25.70;;;;;;10449796;28;20228;-73
2023/06/12 02:22:54;;;;;;;4.80;4.50;;;20.60;26.70;;;;;;10456787;28;20279;-74
2023/06/12 02:27:57;;;;;;;4.77;4.47;;;20.60;26.30;;;;;;10452978;28;20260;-73
2023/06/12 02:33:09;;;;;;;5.30;4.87;;;20.50;26.30;;;;;;10460422;28;20217;-73
2023/06/12 02:38:12;;;;;;;5.00;4.70;;;20.50;27.00;;;;;;10454726;28;20262;-73
2023/06/12 02:43:16;;;;;;;5.23;4.83;;;20.40;26.50;;;;;;10469191;28;20774;-73
2023/06/12 02:48:20;;;;;;;5.40;5.00;;;20.30;26.70;;;;;;10465603;28;20228;-73
2023/06/12 02:53:23;;;;;;;5.27;4.87;;;20.20;26.90;;;;;;10477988;28;20884;-73
2023/06/12 02:58:28;;;;;;;5.00;4.60;;;20.10;26.80;;;;;;10468706;28;20228;-73
2023/06/12 03:03:35;;;;;;;5.77;5.37;;;20.00;26.90;;;;;;10468602;28;20248;-73
2023/06/12 03:08:42;;;;;;;5.70;5.23;;;19.90;27.50;;;;;;10463758;28;20244;-74
2023/06/12 03:13:47;;;;;;;6.63;6.03;;;19.90;28.10;;;;;;10462309;28;20247;-73
2023/06/12 03:18:51;;;;;;;6.70;6.00;;;19.80;27.40;;;;;;10463014;28;20319;-73
2023/06/12 03:23:54;;;;;;;6.13;5.63;;;19.70;27.90;;;;;;10471913;28;20229;-74
2023/06/12 03:28:58;;;;;;;5.80;5.30;;;19.60;27.70;;;;;;10472110;28;20232;-74
2023/06/12 03:34:02;;;;;;;5.83;5.33;;;19.60;27.80;;;;;;10467037;28;20220;-74
2023/06/12 03:39:09;;;;;;;6.13;5.57;;;19.50;28.10;;;;;;10464978;28;20232;-73
2023/06/12 03:44:12;;;;;;;5.23;4.83;;;19.50;28.00;;;;;;10475007;28;20576;-73
2023/06/12 03:49:17;;;;;;;5.97;5.57;;;19.40;28.00;;;;;;10463496;28;20603;-74
2023/06/12 03:54:20;;;;;;;6.00;5.50;;;19.40;28.60;;;;;;10458421;28;20268;-73
2023/06/12 03:59:24;;;;;;;5.93;5.53;;;19.40;28.40;;;;;;10458370;28;20756;-73
2023/06/12 04:04:28;;;;;;;4.97;4.67;;;19.40;28.30;;;;;;10462233;28;20315;-73
2023/06/12 04:09:32;;;;;;;6.50;6.00;;;19.40;28.60;;;;;;10465413;28;20335;-74
2023/06/12 04:14:35;;;;;;;6.40;5.80;;;19.50;28.70;;;;;;10459836;28;20243;-73
2023/06/12 04:19:42;;;;;;;6.67;6.27;;;19.50;28.80;;;;;;10454851;28;20627;-73
2023/06/12 04:24:47;;;;;;;7.00;6.40;;;19.50;29.60;;;;;;10456195;28;20294;-74
2023/06/12 04:29:50;;;;;;;6.10;5.60;;;19.50;29.20;;;;;;10469031;28;20227;-74
2023/06/12 04:34:55;;;;;;;6.80;6.30;;;19.40;29.20;;;;;;10459566;28;20231;-74
2023/06/12 04:39:58;;;;;;;7.00;6.40;;;19.40;29.80;;;;;;10454906;28;20238;-74
2023/06/12 04:45:01;;;;;;;6.57;5.97;;;19.40;29.60;;;;;;10459325;28;20247;-74
2023/06/12 04:50:09;;;;;;;6.83;6.23;;;19.40;29.70;;;;;;10454756;28;20251;-74
2023/06/12 04:55:16;;;;;;;6.97;5.87;;;19.40;30.90;;;;;;10461139;28;20256;-75
2023/06/12 05:00:20;;;;;;;6.97;6.27;;;19.30;29.90;;;;;;10455792;28;20692;-72
2023/06/12 05:05:27;;;;;;;7.63;5.87;;;19.30;30.20;;;;;;10450483;28;20916;-72
2023/06/12 05:10:30;;;;;;;6.17;5.67;;;19.40;31.50;;;;;;10458281;28;20580;-72
2023/06/12 05:15:34;;;;;;;6.30;5.70;;;19.40;31.00;;;;;;10451411;28;20236;-72
2023/06/12 05:20:38;;;;;;;6.30;5.80;;;19.50;31.30;;;;;;10451454;28;20219;-71
2023/06/12 05:25:41;;;;;;;7.93;5.70;;;19.60;31.90;;;;;;10456063;28;20224;-72
2023/06/12 05:30:47;;;;;;;6.23;5.83;;;19.80;31.40;;;;;;10456845;28;20763;-72
2023/06/12 05:35:51;;;;;;;5.23;4.83;;;19.90;31.30;;;;;;10456898;28;20730;-72
2023/06/12 05:40:54;;;;;;;6.20;5.70;;;20.10;31.80;;;;;;10453996;28;20228;-75
2023/06/12 05:45:58;;;;;;;6.23;5.73;;;20.20;30.80;;;;;;10458545;28;20309;-75
2023/06/12 05:51:02;;;;;;;5.83;5.27;;;20.40;30.70;;;;;;10457955;28;20247;-75
2023/06/12 05:56:06;;;;;;;5.90;5.50;;;20.60;30.90;;;;;;10462293;28;20243;-75
2023/06/12 06:01:16;;;;;;;5.47;4.97;;;20.70;30.40;;;;;;10455894;28;20239;-75
2023/06/12 06:06:21;;;;;;;5.40;5.00;;;20.90;30.10;;;;;;10455614;28;20283;-76
2023/06/12 06:11:24;;;;;;;5.20;4.80;;;21.10;30.40;;;;;;10461694;28;20259;-76
2023/06/12 06:16:28;;;;;;;5.10;4.50;;;21.20;30.00;;;;;;10454494;28;20233;-75
2023/06/12 06:21:47;;;;;;;5.03;4.63;;;21.50;30.00;;;;;;10451585;28;20242;-75
2023/06/12 06:26:51;;;;;;;5.80;5.30;;;21.60;29.90;;;;;;10466494;28;20739;-72
2023/06/12 06:31:54;;;;;;;5.40;5.00;;;21.80;29.70;;;;;;10457378;28;20308;-72
2023/06/12 06:36:59;;;;;;;5.27;4.77;;;21.90;29.60;;;;;;10456148;28;20228;-72
2023/06/12 06:42:02;;;;;;;5.43;5.03;;;22.10;29.60;;;;;;10456502;28;20225;-72
2023/06/12 06:47:06;;;;;;;5.67;5.17;;;22.20;29.30;;;;;;10454222;28;20220;-72
2023/06/12 06:52:10;;;;;;;5.80;5.10;;;22.40;29.40;;;;;;10452359;28;20228;-73
2023/06/12 06:57:16;;;;;;;5.87;5.33;;;22.50;29.20;;;;;;10449028;28;20571;-72
2023/06/12 07:02:19;;;;;;;5.70;5.20;;;22.70;29.00;;;;;;10456378;28;20308;-72
2023/06/12 07:07:27;;;;;;;5.03;4.70;;;22.80;28.80;;;;;;10458274;28;20772;-73
2023/06/12 07:12:30;;;;;;;5.40;4.97;;;23.00;28.90;;;;;;10453190;28;20705;-73
2023/06/12 07:17:33;;;;;;;5.47;4.90;;;23.10;28.70;;;;;;10461791;28;20262;-72
2023/06/12 07:22:38;;;;;;;5.17;4.77;;;23.30;28.70;;;;;;10462687;28;20225;-73
2023/06/12 07:27:41;;;;;;;5.10;4.70;;;23.50;28.50;;;;;;10467880;28;20227;-73
2023/06/12 07:32:44;;;;;;;5.17;4.60;;;23.60;28.40;;;;;;10459463;28;20224;-73
2023/06/12 07:37:49;;;;;;;5.27;4.73;;;23.80;28.10;;;;;;10467543;28;20217;-73
2023/06/12 07:42:53;;;;;;;5.33;4.83;;;23.90;28.00;;;;;;10463780;28;20251;-72
2023/06/12 07:47:57;;;;;;;5.77;4.53;;;24.10;28.10;;;;;;10463463;28;20220;-72
2023/06/12 07:53:02;;;;;;;5.87;4.80;;;24.30;28.30;;;;;;10466378;28;20887;-72
2023/06/12 07:58:06;;;;;;;4.57;4.27;;;24.40;27.50;;;;;;10458927;28;20227;-72
2023/06/12 08:03:09;;;;;;;4.50;4.10;;;24.50;27.60;;;;;;10468924;28;20316;-72
2023/06/12 08:08:41;;;;;;;4.80;4.40;;;24.70;27.50;;;;;;10462460;28;20212;-72
2023/06/12 08:13:45;;;;;;;5.07;4.67;;;24.80;26.80;;;;;;10457996;28;20244;-72
2023/06/12 08:18:48;;;;;;;6.07;4.47;;;25.00;26.90;;;;;;10470858;28;20224;-72
2023/06/12 08:23:52;;;;;;;4.87;4.37;;;25.20;26.40;;;;;;10461565;28;20228;-72
2023/06/12 08:28:56;;;;;;;4.17;3.87;;;25.40;26.10;;;;;;10458301;28;20211;-72
2023/06/12 08:34:00;;;;;;;4.83;4.47;;;25.50;25.90;;;;;;10459054;28;20229;-72
2023/06/12 08:39:05;;;;;;;4.63;4.23;;;25.70;25.40;;;;;;10459354;28;20249;-72
2023/06/12 08:44:10;;;;;;;4.53;4.23;;;25.90;25.20;;;;;;10464851;28;20595;-72
2023/06/12 08:49:15;;;;;;;4.37;4.00;;;26.00;24.90;;;;;;10463078;28;20238;-72
2023/06/12 08:54:20;;;;;;;4.40;4.07;;;26.10;24.60;;;;;;10462742;28;20233;-71
2023/06/12 08:59:24;;;;;;;4.40;4.10;;;26.30;24.10;;;;;;10458434;28;20227;-72
2023/06/12 09:04:41;;;;;;;4.40;4.10;;;26.40;24.10;;;;;;10460954;28;20225;-72
2023/06/12 09:09:47;;;;;;;4.67;4.30;;;26.50;23.40;;;;;;10467558;28;20666;-71
2023/06/12 09:14:50;;;;;;;4.30;3.90;;;26.70;23.70;;;;;;10451868;28;20232;-72
2023/06/12 09:19:54;;;;;;;4.30;4.00;;;26.80;24.00;;;;;;10459986;28;20259;-72
2023/06/12 09:24:58;;;;;;;4.67;3.67;;;27.00;23.40;;;;;;10455884;28;20239;-71
2023/06/12 09:30:04;;;;;;;4.13;3.73;;;27.10;22.60;;;;;;10449578;28;20227;-72
2023/06/12 09:35:08;;;;;;;4.20;3.80;;;27.20;22.80;;;;;;10463392;28;20738;-71
2023/06/12 09:40:14;;;;;;;4.23;3.87;;;27.40;22.60;;;;;;10468466;28;20708;-72
2023/06/12 09:45:20;;;;;;;4.10;3.80;;;27.60;21.60;;;;;;10469094;28;20320;-72
2023/06/12 09:50:25;;;;;;;4.00;3.70;;;27.70;21.50;;;;;;10469931;28;20229;-71
2023/06/12 09:55:31;;;;;;;4.20;3.90;;;27.80;21.60;;;;;;10459633;28;20244;-71
2023/06/12 10:00:35;;;;;;;4.33;3.60;;;27.80;20.90;;;;;;10453558;28;20598;-71
2023/06/12 10:05:42;;;;;;;4.37;3.97;;;27.90;21.30;;;;;;10448490;28;20266;-71
2023/06/12 10:10:48;;;;;;;3.80;3.57;;;28.00;20.40;;;;;;10452368;28;20932;-71
2023/06/12 10:15:52;;;;;;;4.43;3.67;;;28.00;20.10;;;;;;10463048;28;20790;-71
2023/06/12 10:20:56;;;;;;;4.23;3.93;;;28.10;20.40;;;;;;10470710;28;20256;-71
2023/06/12 10:26:01;;;;;;;4.00;3.70;;;28.20;20.20;;;;;;10455902;28;20701;-71
2023/06/12 10:31:12;;;;;;;4.20;3.90;;;28.30;19.50;;;;;;10430247;28;20224;-71
2023/06/12 10:36:18;;;;;;;4.00;3.70;;;28.40;20.10;;;;;;10456275;28;20708;-71
2023/06/12 10:41:32;;;;;;;4.47;3.60;;;28.40;20.20;;;;;;10453654;28;20256;-71
2023/06/12 10:46:45;;;;;;;4.50;4.10;;;28.40;19.30;;;;;;10453308;28;20270;-70
2023/06/12 10:51:49;;;;;;;3.87;3.63;;;28.40;19.20;;;;;;10451704;28;20231;-71
2023/06/12 10:57:04;;;;;;;4.13;3.83;;;28.50;20.00;;;;;;10453139;28;20319;-71
2023/06/12 11:02:08;;;;;;;4.20;3.60;;;28.60;17.80;;;;;;10471738;28;20452;-72
2023/06/12 11:07:12;;;;;;;3.80;3.43;;;28.60;19.20;;;;;;10459933;28;20252;-72
2023/06/12 11:12:16;;;;;;;3.83;3.53;;;28.60;18.80;;;;;;10462316;28;20247;-71
2023/06/12 11:17:19;;;;;;;3.60;3.40;;;28.80;18.70;;;;;;10464738;28;20263;-71
2023/06/12 11:22:24;;;;;;;3.63;3.33;;;28.80;18.70;;;;;;10475694;28;20228;-71
2023/06/12 11:27:28;;;;;;;4.17;3.87;;;28.90;18.30;;;;;;10469374;28;20225;-72
2023/06/12 11:32:31;;;;;;;3.70;3.40;;;28.90;17.80;;;;;;10456198;28;20282;-71
2023/06/12 11:37:35;;;;;;;3.40;3.20;;;28.90;18.00;;;;;;10442109;28;20232;-72
2023/06/12 11:43:00;;;;;;;3.40;3.20;;;28.80;18.00;;;;;;10468768;28;20227;-71
2023/06/12 11:48:04;;;;;;;3.80;3.50;;;28.90;17.50;;;;;;10449046;28;20221;-71
2023/06/12 11:53:10;;;;;;;3.20;3.00;;;29.00;17.90;;;;;;10447010;28;20676;-72
2023/06/12 11:58:15;;;;;;;3.13;2.93;;;29.00;17.70;;;;;;10414684;28;20332;-71
2023/06/12 12:03:23;;;;;;;3.50;3.30;;;28.90;17.30;;;;;;10438285;28;20335;-71
2023/06/12 12:08:27;;;;;;;3.70;3.40;;;29.00;17.20;;;;;;10479050;28;20247;-73
2023/06/12 12:13:32;;;;;;;3.43;3.23;;;28.90;17.40;;;;;;10459806;28;20248;-73
2023/06/12 12:18:43;;;;;;;3.97;3.00;;;28.80;17.00;;;;;;10462072;28;20235;-75
2023/06/12 12:23:46;;;;;;;3.80;3.50;;;28.80;16.40;;;;;;10436242;28;20345;-76
2023/06/12 12:28:51;;;;;;;3.70;3.40;;;28.90;17.10;;;;;;10459729;28;20233;-76
2023/06/12 12:33:55;;;;;;;3.50;3.20;;;28.90;16.70;;;;;;10459729;28;20243;-76
2023/06/12 12:38:58;;;;;;;3.60;3.30;;;29.00;16.90;;;;;;10471361;28;20220;-75
2023/06/12 12:44:04;;;;;;;3.50;3.30;;;29.00;16.40;;;;;;10454189;28;20220;-76
2023/06/12 12:49:07;;;;;;;3.60;3.30;;;29.00;15.70;;;;;;10452794;28;20213;-76
2023/06/12 12:54:12;;;;;;;3.30;3.10;;;29.00;16.20;;;;;;10449455;28;20737;-75
2023/06/12 12:59:17;;;;;;;3.50;3.20;;;29.00;16.50;;;;;;10479380;28;20232;-76
2023/06/12 13:04:20;;;;;;;3.70;3.30;;;29.00;16.00;;;;;;10464817;28;20236;-77
2023/06/12 13:09:23;;;;;;;3.47;3.27;;;29.10;16.60;;;;;;10464487;28;20240;-75
2023/06/12 13:14:29;;;;;;;4.03;3.70;;;29.10;16.60;;;;;;10447489;28;20236;-76
2023/06/12 13:19:32;;;;;;;3.63;3.37;;;29.20;16.40;;;;;;10448513;28;20226;-76
2023/06/12 13:24:35;;;;;;;3.60;3.40;;;29.20;16.60;;;;;;10449934;28;20231;-75
2023/06/12 13:29:40;;;;;;;3.70;3.40;;;29.20;16.60;;;;;;10454192;28;20976;-74
2023/06/12 13:34:43;;;;;;;3.80;3.50;;;29.20;15.90;;;;;;10463201;28;20238;-74
2023/06/12 13:39:47;;;;;;;3.87;3.57;;;29.30;16.30;;;;;;10461172;28;20224;-74
2023/06/12 13:44:52;;;;;;;3.73;3.50;;;29.20;16.30;;;;;;10458258;28;20218;-75
2023/06/12 13:49:55;;;;;;;3.57;3.33;;;29.30;15.50;;;;;;10464724;28;20968;-75
2023/06/12 13:54:58;;;;;;;3.80;3.50;;;29.30;15.60;;;;;;10448891;28;20229;-75
2023/06/12 14:00:04;;;;;;;3.50;3.20;;;29.30;15.50;;;;;;10455004;28;20225;-74
2023/06/12 14:05:08;;;;;;;3.90;3.60;;;29.40;15.20;;;;;;10454901;28;20223;-75
2023/06/12 14:10:14;;;;;;;3.63;3.43;;;29.50;15.60;;;;;;10462152;28;20391;-70
2023/06/12 14:15:23;;;;;;;3.97;3.67;;;29.50;15.30;;;;;;10456871;28;20643;-71
2023/06/12 14:20:26;;;;;;;4.00;3.60;;;29.50;15.10;;;;;;10453531;28;20228;-72
2023/06/12 14:25:33;;;;;;;3.73;3.43;;;29.50;15.30;;;;;;10452426;28;20224;-71
2023/06/12 14:30:37;;;;;;;3.63;3.30;;;29.50;15.10;;;;;;10459448;28;20274;-77
2023/06/12 14:35:41;;;;;;;4.00;3.70;;;29.60;14.90;;;;;;10446152;28;20292;-72
2023/06/12 14:40:44;;;;;;;3.40;3.10;;;29.70;14.90;;;;;;10455800;28;20229;-77
2023/06/12 14:45:48;;;;;;;5.10;3.57;;;29.80;14.90;;;;;;10451713;28;20225;-76
2023/06/12 14:50:51;;;;;;;3.67;3.37;;;29.80;14.50;;;;;;10454368;28;20224;-75
2023/06/12 14:55:57;;;;;;;3.50;3.27;;;29.80;14.70;;;;;;10452640;28;20252;-72
2023/06/12 15:01:01;;;;;;;3.90;3.40;;;29.80;14.80;;;;;;10454891;28;20224;-72
2023/06/12 15:06:05;;;;;;;3.40;3.20;;;29.80;14.20;;;;;;10443413;28;20260;-72
2023/06/12 15:11:09;;;;;;;3.40;3.20;;;29.80;14.30;;;;;;10446268;28;20223;-70
2023/06/12 15:16:14;;;;;;;3.47;3.17;;;29.90;14.40;;;;;;10462362;28;20308;-71
2023/06/12 15:21:18;;;;;;;3.50;3.20;;;30.00;14.20;;;;;;10458247;28;20239;-72
2023/06/12 15:26:23;;;;;;;3.67;3.20;;;30.10;14.30;;;;;;10459133;28;20603;-72
2023/06/12 15:31:27;;;;;;;3.70;3.37;;;30.10;14.20;;;;;;10461130;28;20243;-73
2023/06/12 15:36:30;;;;;;;3.43;3.23;;;30.00;13.70;;;;;;10459267;28;20312;-72
2023/06/12 15:41:34;;;;;;;3.43;3.23;;;29.90;14.00;;;;;;10460813;28;20231;-74
2023/06/12 15:46:38;;;;;;;3.33;3.13;;;29.90;13.90;;;;;;10464661;28;20221;-71
2023/06/12 15:51:42;;;;;;;4.07;3.60;;;29.90;13.70;;;;;;10469479;28;20882;-72
2023/06/12 15:56:45;;;;;;;3.73;3.53;;;29.90;13.70;;;;;;10458937;28;20228;-72
2023/06/12 16:01:57;;;;;;;3.57;3.37;;;29.80;13.80;;;;;;10469043;28;20220;-72
2023/06/12 16:07:01;;;;;;;3.50;3.20;;;29.80;13.30;;;;;;10468535;28;20224;-71
2023/06/12 16:12:05;;;;;;;3.80;3.50;;;29.80;13.70;;;;;;10467131;28;20218;-72
2023/06/12 16:17:09;;;;;;;3.57;3.27;;;29.80;13.60;;;;;;10470176;28;20234;-71
2023/06/12 16:22:13;;;;;;;3.47;3.17;;;29.70;13.30;;;;;;10469652;28;20228;-72
2023/06/12 16:27:16;;;;;;;14.37;4.90;;;29.70;13.40;;;;;;10467559;28;20235;-72
2023/06/12 16:32:21;;;;;;;3.50;3.30;;;29.70;13.40;;;;;;10470916;28;20758;-71
2023/06/12 16:37:25;;;;;;;3.93;3.50;;;29.70;13.00;;;;;;10467839;28;20240;-72
2023/06/12 16:42:28;;;;;;;5.10;3.20;;;29.70;13.10;;;;;;10463432;28;20771;-72
2023/06/12 16:47:32;;;;;;;3.83;3.50;;;29.70;13.10;;;;;;10457605;28;20227;-71
2023/06/12 16:52:36;;;;;;;3.50;3.30;;;29.70;12.60;;;;;;10464960;28;20331;-72
2023/06/12 16:57:39;;;;;;;4.13;3.30;;;29.60;12.90;;;;;;10461922;28;20252;-71
2023/06/12 17:02:46;;;;;;;3.17;2.97;;;29.60;12.60;;;;;;10463426;28;20660;-70
2023/06/12 17:07:50;;;;;;;3.43;3.20;;;29.50;12.40;;;;;;10458009;28;20232;-71
2023/06/12 17:12:53;;;;;;;3.53;3.23;;;29.50;12.80;;;;;;10456953;28;20225;-75
2023/06/12 17:17:58;;;;;;;3.90;3.20;;;29.40;12.70;;;;;;10452816;28;20315;-75
2023/06/12 17:23:01;;;;;;;3.47;3.17;;;29.40;12.50;;;;;;10450054;28;20898;-75
2023/06/12 17:28:04;;;;;;;3.63;3.37;;;29.40;12.70;;;;;;10464924;28;20223;-75
2023/06/12 17:33:13;;;;;;;3.50;3.10;;;29.40;12.60;;;;;;10448347;28;20225;-75
2023/06/12 17:38:16;;;;;;;3.33;3.13;;;29.40;12.60;;;;;;10457648;28;20247;-75
2023/06/12 17:43:19;;;;;;;3.70;3.40;;;29.40;12.80;;;;;;10455190;28;20584;-75
2023/06/12 17:48:24;;;;;;;3.70;3.50;;;29.40;12.90;;;;;;10457916;28;20231;-75
2023/06/12 17:53:27;;;;;;;3.60;3.30;;;29.40;12.80;;;;;;10455815;28;20224;-75
2023/06/12 17:58:30;;;;;;;4.73;3.40;;;29.30;12.90;;;;;;10450660;28;20308;-75
2023/06/12 18:03:35;;;;;;;3.90;3.43;;;29.30;12.90;;;;;;10454282;28;20703;-75
2023/06/12 18:08:38;;;;;;;4.07;3.77;;;29.20;12.70;;;;;;10460597;28;20252;-76
2023/06/12 18:13:41;;;;;;;3.90;3.60;;;29.10;12.90;;;;;;10458208;28;20374;-70
2023/06/12 18:18:46;;;;;;;3.80;3.50;;;29.00;12.90;;;;;;10455108;28;20223;-70
2023/06/12 18:23:50;;;;;;;3.83;3.53;;;28.80;12.80;;;;;;10462230;28;20247;-71
2023/06/12 18:28:53;;;;;;;3.33;3.13;;;28.60;13.00;;;;;;10453675;28;20226;-71
2023/06/12 18:33:57;;;;;;;3.70;3.40;;;28.50;13.30;;;;;;10451617;28;20938;-71
2023/06/12 18:39:00;;;;;;;3.43;3.13;;;28.40;13.40;;;;;;10457630;28;20255;-71
2023/06/12 18:44:05;;;;;;;3.87;3.57;;;28.30;13.50;;;;;;10450890;28;20221;-70
2023/06/12 18:49:10;;;;;;;3.37;3.10;;;28.30;13.80;;;;;;10448544;28;20247;-71
2023/06/12 18:54:13;;;;;;;3.60;3.30;;;28.20;13.50;;;;;;10458100;28;20256;-70
2023/06/12 18:59:16;;;;;;;3.77;3.47;;;28.10;13.60;;;;;;10456193;28;20323;-71
2023/06/12 19:04:21;;;;;;;3.97;3.30;;;28.00;13.70;;;;;;10451463;28;20323;-72
2023/06/12 19:09:24;;;;;;;3.80;3.50;;;27.90;13.70;;;;;;10456905;28;20287;-72
2023/06/12 19:14:27;;;;;;;3.57;3.27;;;27.80;13.70;;;;;;10455988;28;20229;-72
2023/06/12 19:19:32;;;;;;;3.67;3.40;;;27.70;13.80;;;;;;10452198;28;20311;-71
2023/06/12 19:24:36;;;;;;;3.60;3.30;;;27.60;13.80;;;;;;10470292;28;20723;-72
2023/06/12 19:29:39;;;;;;;3.83;3.50;;;27.50;14.00;;;;;;10470982;28;20220;-71
2023/06/12 19:34:44;;;;;;;4.20;3.40;;;27.50;14.00;;;;;;10464930;28;20550;-72
2023/06/12 19:39:49;;;;;;;3.77;3.47;;;27.30;14.10;;;;;;10461037;28;20968;-70
2023/06/12 19:44:53;;;;;;;3.73;3.43;;;27.30;14.20;;;;;;10462739;28;20224;-72
2023/06/12 19:49:57;;;;;;;3.60;3.23;;;27.10;14.20;;;;;;10464747;28;20227;-68
2023/06/12 19:55:00;;;;;;;3.80;3.50;;;27.00;14.30;;;;;;10462307;28;20231;-70
2023/06/12 20:00:05;;;;;;;3.57;3.10;;;27.00;14.70;;;;;;10459898;28;20226;-72
2023/06/12 20:05:10;;;;;;;3.70;3.40;;;26.80;14.70;;;;;;10455096;28;20892;-71
2023/06/12 20:10:14;;;;;;;3.60;3.30;;;26.60;15.00;;;;;;10457885;28;21005;-71
2023/06/12 20:15:18;;;;;;;3.40;3.13;;;26.40;15.10;;;;;;10459056;28;20232;-71
2023/06/12 20:20:26;;;;;;;3.47;3.20;;;26.20;15.30;;;;;;10459913;28;20308;-71
2023/06/12 20:25:31;;;;;;;4.30;3.50;;;25.90;15.70;;;;;;10461910;28;20239;-71
2023/06/12 20:30:34;;;;;;;3.20;3.00;;;25.70;15.60;;;;;;10457076;28;20221;-72
2023/06/12 20:35:39;;;;;;;3.50;3.30;;;25.50;15.70;;;;;;10464894;28;20251;-72
2023/06/12 20:40:42;;;;;;;5.47;3.30;;;25.20;15.90;;;;;;10462734;28;20306;-72
2023/06/12 20:45:48;;;;;;;3.70;3.40;;;25.10;15.60;;;;;;10463065;28;20225;-72
2023/06/12 20:50:53;;;;;;;3.00;2.80;;;24.90;15.70;;;;;;10472780;28;20220;-71
2023/06/12 20:55:56;;;;;;;3.50;3.20;;;24.70;15.80;;;;;;10461300;28;20247;-71
2023/06/12 21:00:59;;;;;;;3.30;3.10;;;24.50;16.00;;;;;;10456762;28;20592;-75
2023/06/12 21:06:05;;;;;;;3.50;3.20;;;24.50;16.20;;;;;;10457844;28;20270;-75
2023/06/12 21:11:31;;;;;;;3.20;3.00;;;24.30;16.10;;;;;;10464917;28;20243;-75
2023/06/12 21:16:35;;;;;;;3.40;3.20;;;24.20;16.10;;;;;;10458783;28;20259;-75
2023/06/12 21:21:40;;;;;;;3.53;3.23;;;24.10;16.20;;;;;;10461119;28;20232;-75
2023/06/12 21:26:44;;;;;;;3.40;2.70;;;24.00;16.20;;;;;;10456882;28;20270;-75
2023/06/12 21:31:47;;;;;;;3.63;3.27;;;23.90;16.20;;;;;;10461613;28;20769;-75
2023/06/12 21:36:52;;;;;;;3.17;2.97;;;23.90;16.30;;;;;;10457379;28;20315;-75
2023/06/12 21:42:08;;;;;;;3.53;3.23;;;23.80;16.40;;;;;;10466643;28;20303;-76
2023/06/12 21:47:12;;;;;;;3.03;2.73;;;23.70;16.40;;;;;;10464596;28;20229;-75
2023/06/12 21:52:17;;;;;;;3.13;2.90;;;23.60;16.60;;;;;;10458076;28;20224;-75
2023/06/12 21:57:21;;;;;;;3.13;2.47;;;23.50;16.70;;;;;;10459949;28;20229;-75
2023/06/12 22:02:24;;;;;;;3.13;2.60;;;23.50;16.60;;;;;;10459408;28;20240;-75
2023/06/12 22:07:28;;;;;;;3.87;3.00;;;23.40;16.60;;;;;;10462556;28;20232;-75
2023/06/12 22:12:32;;;;;;;2.80;2.60;;;23.30;16.80;;;;;;10466117;28;20220;-75
2023/06/12 22:17:35;;;;;;;2.70;2.50;;;23.10;16.70;;;;;;10464987;28;20595;-76
2023/06/12 22:22:40;;;;;;;2.77;2.57;;;23.00;17.10;;;;;;10459779;28;20228;-75
2023/06/12 22:27:43;;;;;;;3.30;3.00;;;22.90;17.10;;;;;;10463212;28;20235;-75
2023/06/12 22:32:47;;;;;;;3.03;2.80;;;22.90;17.20;;;;;;10454658;28;20229;-75
2023/06/12 22:37:52;;;;;;;3.20;2.90;;;22.80;17.00;;;;;;10449693;28;20298;-75
2023/06/12 22:42:55;;;;;;;2.97;2.67;;;22.80;17.00;;;;;;10467014;28;20305;-75
2023/06/12 22:48:00;;;;;;;2.90;2.70;;;22.70;17.00;;;;;;10456909;28;20220;-75
2023/06/12 22:53:09;;;;;;;3.40;2.97;;;22.70;17.00;;;;;;10439775;28;20217;-75
2023/06/12 22:58:12;;;;;;;3.17;2.90;;;22.60;16.90;;;;;;10460937;28;20220;-75
2023/06/12 23:03:15;;;;;;;3.60;2.90;;;22.60;16.90;;;;;;10463647;28;20758;-75
2023/06/12 23:08:19;;;;;;;2.80;2.60;;;22.50;16.80;;;;;;10468950;28;20228;-75
2023/06/12 23:13:23;;;;;;;2.70;2.50;;;22.50;17.20;;;;;;10467057;28;20251;-75
2023/06/12 23:18:29;;;;;;;2.87;2.60;;;22.40;17.20;;;;;;10468604;28;20224;-75
2023/06/12 23:23:35;;;;;;;5.13;3.27;;;22.30;17.20;;;;;;10461822;28;20279;-75
2023/06/12 23:28:38;;;;;;;4.53;3.20;;;22.40;17.50;;;;;;10466252;28;20773;-75
2023/06/12 23:33:41;;;;;;;2.87;2.67;;;22.30;17.50;;;;;;10463379;28;20224;-75
2023/06/12 23:38:46;;;;;;;3.07;2.87;;;22.30;17.60;;;;;;10464322;28;21033;-75
2023/06/12 23:43:49;;;;;;;4.23;3.00;;;22.20;17.80;;;;;;10464054;28;20747;-75
2023/06/12 23:48:52;;;;;;;3.40;2.50;;;22.10;17.70;;;;;;10467139;28;20785;-75
2023/06/12 23:53:57;;;;;;;3.00;2.60;;;22.10;17.80;;;;;;10469465;28;20717;-75
2023/06/12 23:59:02;;;;;;;2.93;2.73;;;22.00;18.00;;;;;;10459092;28;20228;-74
